createdAt,value
2022-08-01T00:00:05.829Z,15.67
2022-08-01T00:02:32.862Z,11.68
2022-08-01T00:05:01.195Z,13.55
2022-08-01T00:07:28.134Z,11.60
2022-08-01T00:09:55.050Z,12.95
2022-08-01T00:12:21.850Z,13.97
2022-08-01T00:14:48.765Z,13.60
2022-08-01T00:17:15.628Z,16.48
2022-08-01T00:19:42.672Z,14.60
2022-08-01T00:22:09.940Z,14.35
2022-08-01T00:24:36.968Z,14.63
2022-08-01T00:27:03.886Z,12.25
2022-08-01T00:30:04.749Z,11.65
2022-08-01T00:32:17.624Z,12.75
2022-08-01T00:34:44.427Z,13.25
2022-08-01T00:37:14.046Z,13.10
2022-08-01T00:39:43.435Z,13.55
2022-08-01T00:42:11.683Z,14.55
2022-08-01T00:44:38.766Z,15.55
2022-08-01T00:47:05.987Z,13.60
2022-08-01T00:49:33.076Z,13.90
2022-08-01T00:52:00.350Z,17.02
2022-08-01T00:54:27.567Z,16.15
2022-08-01T00:56:55.249Z,14.13
2022-08-01T00:59:22.783Z,14.98
2022-08-01T01:01:50.335Z,12.30
2022-08-01T01:04:17.887Z,12.40
2022-08-01T01:07:06.973Z,11.85
2022-08-01T01:09:44.346Z,12.60
2022-08-01T01:12:20.097Z,13.20
2022-08-01T01:15:09.846Z,15.97
2022-08-01T01:17:51.329Z,15.18
2022-08-01T01:20:19.225Z,12.70
2022-08-01T01:22:59.467Z,14.13
2022-08-01T01:25:38.593Z,15.10
2022-08-01T01:28:11.266Z,14.03
2022-08-01T01:30:38.749Z,14.65
2022-08-01T01:33:07.264Z,11.82
2022-08-01T01:35:36.847Z,15.15
2022-08-01T01:38:10.467Z,15.35
2022-08-01T01:40:38.127Z,15.57
2022-08-01T01:43:05.126Z,12.57
2022-08-01T01:45:31.966Z,10.77
2022-08-01T01:47:58.946Z,13.85
2022-08-01T01:50:26.098Z,16.45
2022-08-01T01:52:53.274Z,13.63
2022-08-01T01:55:20.417Z,12.30
2022-08-01T01:57:47.247Z,11.60
2022-08-01T02:00:14.389Z,15.70
2022-08-01T02:02:41.866Z,11.93
2022-08-01T02:05:10.349Z,13.10
2022-08-01T02:07:37.267Z,13.63
2022-08-01T02:10:07.815Z,11.73
2022-08-01T02:12:36.369Z,14.35
2022-08-01T02:15:04.606Z,14.80
2022-08-01T02:17:31.726Z,14.43
2022-08-01T02:19:58.686Z,15.68
2022-08-01T02:22:41.947Z,15.10
2022-08-01T02:25:35.699Z,14.57
2022-08-01T02:28:07.513Z,13.32
2022-08-01T02:30:39.828Z,19.37
2022-08-01T02:33:32.855Z,15.35
2022-08-01T02:36:31.474Z,14.07
2022-08-01T02:38:47.526Z,20.40
2022-08-01T02:41:18.148Z,15.57
2022-08-01T02:43:53.466Z,13.60
2022-08-01T02:46:36.249Z,12.77
2022-08-01T02:49:04.562Z,14.77
2022-08-01T02:51:32.015Z,16.88
2022-08-01T02:53:59.025Z,14.13
2022-08-01T02:56:35.697Z,15.67
2022-08-01T02:59:07.870Z,12.90
2022-08-01T03:01:37.734Z,17.67
2022-08-01T03:04:07.728Z,13.68
2022-08-01T03:06:34.929Z,14.52
2022-08-01T03:09:02.544Z,11.80
2022-08-01T03:11:29.714Z,12.88
2022-08-01T03:13:56.834Z,12.82
2022-08-01T03:16:25.111Z,11.65
2022-08-01T03:18:53.391Z,12.35
2022-08-01T03:21:21.749Z,15.33
2022-08-01T03:23:53.442Z,17.00
2022-08-01T03:26:21.851Z,16.55
2022-08-01T03:28:48.726Z,14.40
2022-08-01T03:31:15.722Z,14.85
2022-08-01T03:33:42.652Z,13.20
2022-08-01T03:36:10.588Z,12.07
2022-08-01T03:38:39.410Z,11.98
2022-08-01T03:41:17.087Z,14.23
2022-08-01T03:43:49.312Z,11.07
2022-08-01T03:46:22.269Z,9.67
2022-08-01T03:48:52.209Z,10.63
2022-08-01T03:51:19.235Z,10.43
2022-08-01T03:53:46.271Z,8.35
2022-08-01T03:56:13.928Z,10.27
2022-08-01T03:58:40.857Z,11.53
2022-08-01T04:01:08.253Z,6.70
2022-08-01T04:03:43.790Z,6.82
2022-08-01T04:06:11.786Z,7.82
2022-08-01T04:08:39.626Z,5.47
2022-08-01T04:11:06.493Z,4.83
2022-08-01T04:13:37.110Z,5.35
2022-08-01T04:16:04.712Z,5.32
2022-08-01T04:18:31.649Z,6.15
2022-08-01T04:20:59.002Z,5.28
2022-08-01T04:23:26.131Z,5.30
2022-08-01T04:25:52.944Z,5.95
2022-08-01T04:28:20.708Z,4.97
2022-08-01T04:30:47.708Z,5.22
2022-08-01T04:33:17.247Z,5.32
2022-08-01T04:36:02.740Z,5.27
2022-08-01T04:38:31.891Z,4.85
2022-08-01T04:40:58.707Z,5.80
2022-08-01T04:43:25.668Z,6.57
2022-08-01T04:45:52.574Z,5.53
2022-08-01T04:48:23.037Z,5.50
2022-08-01T04:50:50.196Z,4.90
2022-08-01T04:53:20.432Z,4.45
2022-08-01T04:55:47.652Z,6.10
2022-08-01T04:58:18.227Z,5.05
2022-08-01T05:00:46.149Z,5.30
2022-08-01T05:03:13.113Z,5.00
2022-08-01T05:05:40.031Z,6.55
2022-08-01T05:08:07.456Z,5.30
2022-08-01T05:10:34.930Z,6.70
2022-08-01T05:13:01.809Z,4.17
2022-08-01T05:15:28.627Z,4.55
2022-08-01T05:17:55.817Z,5.20
2022-08-01T05:20:22.774Z,4.95
2022-08-01T05:22:49.732Z,18.80
2022-08-01T05:25:19.223Z,5.67
2022-08-01T05:27:50.854Z,4.55
2022-08-01T05:30:18.012Z,6.22
2022-08-01T05:32:44.930Z,4.22
2022-08-01T05:35:11.872Z,6.28
2022-08-01T05:37:38.949Z,6.87
2022-08-01T05:40:06.969Z,4.72
2022-08-01T05:42:34.087Z,5.10
2022-08-01T05:45:00.968Z,5.97
2022-08-01T05:47:27.730Z,5.50
2022-08-01T05:49:54.807Z,4.33
2022-08-01T05:52:21.788Z,5.28
2022-08-01T05:54:48.782Z,6.95
2022-08-01T05:57:15.749Z,6.60
2022-08-01T05:59:42.678Z,4.65
2022-08-01T06:02:10.137Z,5.00
2022-08-01T06:04:37.554Z,6.72
2022-08-01T06:07:04.498Z,4.65
2022-08-01T06:09:32.005Z,5.57
2022-08-01T06:11:58.919Z,7.45
2022-08-01T06:14:25.809Z,6.17
2022-08-01T06:16:52.660Z,5.82
2022-08-01T06:19:19.751Z,6.25
2022-08-01T06:21:46.673Z,6.03
2022-08-01T06:24:13.711Z,5.60
2022-08-01T06:26:40.609Z,8.90
2022-08-01T06:29:07.978Z,5.40
2022-08-01T06:31:37.011Z,6.35
2022-08-01T06:34:03.930Z,7.65
2022-08-01T06:36:30.835Z,4.60
2022-08-01T06:38:57.657Z,4.60
2022-08-01T06:41:24.652Z,6.05
2022-08-01T06:43:53.308Z,4.45
2022-08-01T06:46:20.227Z,3.72
2022-08-01T06:48:47.303Z,6.80
2022-08-01T06:51:19.151Z,5.53
2022-08-01T06:53:45.988Z,6.57
2022-08-01T06:56:13.007Z,8.73
2022-08-01T06:58:39.971Z,8.63
2022-08-01T07:01:08.179Z,3.97
2022-08-01T07:03:53.574Z,6.37
2022-08-01T07:06:23.647Z,4.10
2022-08-01T07:08:50.536Z,3.85
2022-08-01T07:11:17.689Z,7.82
2022-08-01T07:13:46.858Z,3.88
2022-08-01T07:16:15.763Z,4.13
2022-08-01T07:18:42.709Z,5.07
2022-08-01T07:21:39.358Z,5.43
2022-08-01T07:23:56.649Z,3.70
2022-08-01T07:26:23.574Z,5.72
2022-08-01T07:28:50.491Z,4.60
2022-08-01T07:31:17.570Z,6.57
2022-08-01T07:33:47.935Z,4.53
2022-08-01T07:36:19.153Z,4.53
2022-08-01T07:38:46.468Z,3.92
2022-08-01T07:41:13.576Z,4.33
2022-08-01T07:43:40.605Z,4.85
2022-08-01T07:46:07.672Z,3.78
2022-08-01T07:48:34.672Z,3.25
2022-08-01T07:51:01.508Z,3.55
2022-08-01T07:53:28.415Z,6.93
2022-08-01T07:55:55.248Z,6.70
2022-08-01T07:58:22.176Z,3.47
2022-08-01T08:00:49.067Z,6.00
2022-08-01T08:03:15.927Z,3.88
2022-08-01T08:05:58.268Z,5.17
2022-08-01T08:08:27.339Z,6.25
2022-08-01T08:10:54.153Z,3.58
2022-08-01T08:13:21.146Z,5.65
2022-08-01T08:15:48.860Z,3.13
2022-08-01T08:18:16.516Z,4.53
2022-08-01T08:20:43.635Z,3.72
2022-08-01T08:23:42.749Z,5.70
2022-08-01T08:26:12.077Z,4.10
2022-08-01T08:28:40.579Z,4.43
2022-08-01T08:31:50.861Z,4.10
2022-08-01T08:33:56.086Z,3.30
2022-08-01T08:36:28.565Z,3.47
2022-08-01T08:39:01.723Z,4.10
2022-08-01T08:41:37.785Z,3.38
2022-08-01T08:44:10.204Z,4.97
2022-08-01T08:46:45.788Z,4.18
2022-08-01T08:49:13.670Z,4.03
2022-08-01T08:51:41.056Z,4.88
2022-08-01T08:54:08.429Z,3.42
2022-08-01T08:56:35.886Z,4.20
2022-08-01T08:59:03.307Z,4.25
2022-08-01T09:01:30.457Z,3.08
2022-08-01T09:03:57.294Z,4.10
2022-08-01T09:06:24.109Z,7.65
2022-08-01T09:08:54.925Z,3.83
2022-08-01T09:11:22.881Z,3.45
2022-08-01T09:14:06.667Z,4.25
2022-08-01T09:16:34.168Z,4.57
2022-08-01T09:19:38.976Z,6.15
2022-08-01T09:22:06.172Z,4.27
2022-08-01T09:24:33.325Z,3.92
2022-08-01T09:27:03.364Z,8.23
2022-08-01T09:29:38.055Z,4.57
2022-08-01T09:32:14.133Z,6.80
2022-08-01T09:34:43.424Z,5.37
2022-08-01T09:37:10.793Z,6.78
2022-08-01T09:39:44.179Z,5.68
2022-08-01T09:42:29.203Z,4.22
2022-08-01T09:44:56.562Z,8.48
2022-08-01T09:47:25.353Z,7.97
2022-08-01T09:49:57.363Z,6.32
2022-08-01T09:52:27.855Z,3.97
2022-08-01T09:55:00.728Z,4.75
2022-08-01T09:57:28.625Z,7.80
2022-08-01T09:59:58.793Z,9.73
2022-08-01T10:02:47.464Z,7.63
2022-08-01T10:05:18.931Z,5.90
2022-08-01T10:07:59.078Z,8.57
2022-08-01T10:10:29.129Z,6.93
2022-08-01T10:13:01.506Z,5.10
2022-08-01T10:15:36.742Z,3.78
2022-08-01T10:18:06.286Z,4.75
2022-08-01T10:20:43.167Z,6.78
2022-08-01T10:23:11.070Z,6.40
2022-08-01T10:25:42.904Z,5.63
2022-08-01T10:28:23.849Z,5.50
2022-08-01T10:30:53.088Z,5.63
2022-08-01T10:33:51.575Z,5.35
2022-08-01T10:36:09.889Z,5.57
2022-08-01T10:38:37.332Z,5.93
2022-08-01T10:41:06.412Z,4.28
2022-08-01T10:43:35.576Z,5.70
2022-08-01T10:46:04.566Z,5.53
2022-08-01T10:48:52.140Z,3.50
2022-08-01T10:51:21.536Z,5.00
2022-08-01T10:53:54.391Z,5.30
2022-08-01T10:56:27.133Z,5.22
2022-08-01T10:59:06.695Z,8.02
2022-08-01T11:01:38.745Z,5.55
2022-08-01T11:04:16.641Z,5.67
2022-08-01T11:06:54.904Z,4.43
2022-08-01T11:09:36.251Z,4.63
2022-08-01T11:12:08.188Z,8.93
2022-08-01T11:14:59.031Z,5.93
2022-08-01T11:17:37.293Z,5.83
2022-08-01T11:20:17.598Z,4.78
2022-08-01T11:23:07.132Z,3.72
2022-08-01T11:26:06.635Z,5.70
2022-08-01T11:28:32.916Z,5.65
2022-08-01T11:31:11.601Z,6.43
2022-08-01T11:33:46.891Z,4.70
2022-08-01T11:36:17.168Z,6.85
2022-08-01T11:38:51.459Z,5.05
2022-08-01T11:41:38.577Z,4.63
2022-08-01T11:44:13.069Z,4.60
2022-08-01T11:47:09.806Z,3.55
2022-08-01T11:49:44.751Z,4.95
2022-08-01T11:52:36.814Z,5.25
2022-08-01T11:55:03.733Z,6.35
2022-08-01T11:57:33.908Z,6.73
2022-08-01T12:00:16.955Z,4.13
2022-08-01T12:02:45.984Z,5.10
2022-08-01T12:05:15.689Z,6.25
2022-08-01T12:07:43.769Z,4.03
2022-08-01T12:10:16.470Z,5.33
2022-08-01T12:12:53.132Z,6.38
2022-08-01T12:15:21.565Z,5.07
2022-08-01T12:17:58.271Z,7.65
2022-08-01T12:20:31.287Z,6.97
2022-08-01T12:23:03.457Z,7.97
2022-08-01T12:25:30.472Z,6.43
2022-08-01T12:28:00.788Z,6.70
2022-08-01T12:30:28.156Z,9.32
2022-08-01T12:32:55.052Z,8.65
2022-08-01T12:35:24.306Z,7.87
2022-08-01T12:37:56.005Z,6.75
2022-08-01T12:40:27.427Z,4.88
2022-08-01T12:42:55.590Z,6.45
2022-08-01T12:45:26.632Z,6.50
2022-08-01T12:47:54.033Z,6.17
2022-08-01T12:50:22.905Z,9.55
2022-08-01T12:52:50.355Z,3.70
2022-08-01T12:55:21.765Z,4.78
2022-08-01T12:58:04.419Z,2.90
2022-08-01T13:00:31.471Z,7.00
2022-08-01T13:03:20.710Z,5.63
2022-08-01T13:05:49.299Z,5.05
2022-08-01T13:08:17.762Z,5.85
2022-08-01T13:10:45.271Z,5.15
2022-08-01T13:13:19.952Z,4.10
2022-08-01T13:16:04.231Z,6.72
2022-08-01T13:18:33.509Z,4.72
2022-08-01T13:21:11.564Z,3.97
2022-08-01T13:24:01.716Z,6.15
2022-08-01T13:26:49.557Z,4.83
2022-08-01T13:29:21.373Z,4.97
2022-08-01T13:31:48.772Z,6.93
2022-08-01T13:34:15.985Z,4.65
2022-08-01T13:36:48.871Z,4.65
2022-08-01T13:39:34.682Z,4.90
2022-08-01T13:42:01.538Z,3.42
2022-08-01T13:44:28.467Z,6.75
2022-08-01T13:46:57.027Z,3.13
2022-08-01T13:49:24.463Z,3.92
2022-08-01T13:51:51.723Z,5.00
2022-08-01T13:54:19.041Z,4.38
2022-08-01T13:56:45.974Z,4.22
2022-08-01T13:59:13.770Z,4.75
2022-08-01T14:01:40.705Z,5.18
2022-08-01T14:04:07.659Z,4.67
2022-08-01T14:06:36.084Z,4.40
2022-08-01T14:09:04.428Z,6.22
2022-08-01T14:11:45.918Z,3.72
2022-08-01T14:14:13.542Z,4.85
2022-08-01T14:16:40.593Z,5.97
2022-08-01T14:19:07.567Z,5.00
2022-08-01T14:21:34.399Z,5.75
2022-08-01T14:24:01.212Z,7.78
2022-08-01T14:26:28.114Z,3.28
2022-08-01T14:28:55.000Z,6.90
2022-08-01T14:31:21.884Z,5.22
2022-08-01T14:33:48.768Z,6.18
2022-08-01T14:36:29.097Z,5.57
2022-08-01T14:39:00.402Z,5.32
2022-08-01T14:41:28.732Z,3.90
2022-08-01T14:43:58.447Z,6.50
2022-08-01T14:46:25.431Z,4.07
2022-08-01T14:48:52.940Z,5.93
2022-08-01T14:51:20.370Z,6.82
2022-08-01T14:53:50.810Z,5.53
2022-08-01T14:56:19.182Z,5.82
2022-08-01T14:58:45.985Z,5.38
2022-08-01T15:01:12.970Z,6.97
2022-08-01T15:03:39.847Z,5.82
2022-08-01T15:06:07.535Z,8.57
2022-08-01T15:08:34.430Z,8.47
2022-08-01T15:11:02.664Z,7.65
2022-08-01T15:13:29.548Z,6.45
2022-08-01T15:15:59.709Z,5.35
2022-08-01T15:18:30.509Z,6.57
2022-08-01T15:21:01.177Z,5.70
2022-08-01T15:23:28.038Z,5.38
2022-08-01T15:25:55.008Z,3.70
2022-08-01T15:28:21.932Z,4.43
2022-08-01T15:30:48.820Z,3.57
2022-08-01T15:33:15.733Z,4.10
2022-08-01T15:35:43.628Z,6.32
2022-08-01T15:38:10.691Z,4.88
2022-08-01T15:40:37.629Z,8.10
2022-08-01T15:43:04.886Z,5.30
2022-08-01T15:45:46.910Z,4.30
2022-08-01T15:48:14.585Z,6.18
2022-08-01T15:50:41.605Z,5.55
2022-08-01T15:53:08.542Z,5.03
2022-08-01T15:55:41.490Z,4.43
2022-08-01T15:58:08.510Z,4.43
2022-08-01T16:00:39.667Z,9.00
2022-08-01T16:03:10.701Z,5.57
2022-08-01T16:05:43.118Z,4.68
2022-08-01T16:08:14.511Z,7.90
2022-08-01T16:10:41.490Z,5.05
2022-08-01T16:13:08.812Z,4.90
2022-08-01T16:15:37.511Z,5.50
2022-08-01T16:18:08.506Z,4.00
2022-08-01T16:20:35.453Z,5.00
2022-08-01T16:23:02.586Z,3.88
2022-08-01T16:25:29.427Z,5.78
2022-08-01T16:27:56.380Z,5.07
2022-08-01T16:30:23.307Z,5.75
2022-08-01T16:32:53.989Z,5.20
2022-08-01T16:35:31.350Z,3.40
2022-08-01T16:38:03.789Z,5.85
2022-08-01T16:40:30.795Z,3.40
2022-08-01T16:42:58.444Z,5.43
2022-08-01T16:45:25.803Z,3.80
2022-08-01T16:47:52.838Z,3.92
2022-08-01T16:50:28.614Z,4.32
2022-08-01T16:52:55.771Z,3.60
2022-08-01T16:55:23.348Z,5.50
2022-08-01T16:57:51.309Z,3.90
2022-08-01T17:00:21.210Z,4.35
2022-08-01T17:02:48.645Z,3.65
2022-08-01T17:05:15.680Z,3.92
2022-08-01T17:07:42.491Z,3.70
2022-08-01T17:10:09.967Z,4.90
2022-08-01T17:12:36.851Z,4.03
2022-08-01T17:15:04.366Z,3.80
2022-08-01T17:17:31.213Z,5.03
2022-08-01T17:19:58.030Z,5.68
2022-08-01T17:22:24.914Z,4.40
2022-08-01T17:24:52.318Z,6.20
2022-08-01T17:27:19.461Z,7.93
2022-08-01T17:29:46.771Z,4.88
2022-08-01T17:32:14.294Z,5.65
2022-08-01T17:34:42.029Z,3.97
2022-08-01T17:37:09.642Z,6.40
2022-08-01T17:39:39.537Z,8.00
2022-08-01T17:42:08.113Z,5.13
2022-08-01T17:44:35.178Z,7.30
2022-08-01T17:47:02.088Z,4.77
2022-08-01T17:49:53.427Z,8.80
2022-08-01T17:52:15.713Z,4.63
2022-08-01T17:54:42.569Z,6.90
2022-08-01T17:57:10.503Z,4.95
2022-08-01T17:59:37.409Z,4.33
2022-08-01T18:02:04.623Z,4.68
2022-08-01T18:04:33.742Z,7.05
2022-08-01T18:07:01.426Z,5.70
2022-08-01T18:09:32.848Z,6.45
2022-08-01T18:12:01.906Z,9.33
2022-08-01T18:14:37.899Z,4.82
2022-08-01T18:17:10.966Z,4.55
2022-08-01T18:19:39.374Z,6.72
2022-08-01T18:22:28.915Z,5.88
2022-08-01T18:24:53.476Z,5.70
2022-08-01T18:27:20.508Z,5.50
2022-08-01T18:29:48.742Z,7.00
2022-08-01T18:32:15.869Z,6.53
2022-08-01T18:34:42.707Z,7.15
2022-08-01T18:37:12.080Z,6.17
2022-08-01T18:39:40.354Z,5.45
2022-08-01T18:42:07.462Z,5.38
2022-08-01T18:44:34.891Z,5.75
2022-08-01T18:47:01.800Z,7.03
2022-08-01T18:49:28.750Z,5.70
2022-08-01T18:51:55.770Z,5.60
2022-08-01T18:54:24.306Z,7.43
2022-08-01T18:56:51.428Z,5.93
2022-08-01T18:59:18.288Z,7.47
2022-08-01T19:01:45.285Z,8.83
2022-08-01T19:04:13.375Z,7.80
2022-08-01T19:06:40.523Z,8.23
2022-08-01T19:09:07.556Z,6.55
2022-08-01T19:11:34.788Z,7.90
2022-08-01T19:14:02.554Z,10.67
2022-08-01T19:16:29.487Z,11.75
2022-08-01T19:18:56.395Z,16.83
2022-08-01T19:21:23.595Z,10.48
2022-08-01T19:24:08.709Z,11.45
2022-08-01T19:26:36.230Z,13.83
2022-08-01T19:29:35.807Z,11.75
2022-08-01T19:32:05.562Z,10.27
2022-08-01T19:34:33.931Z,11.55
2022-08-01T19:37:00.775Z,10.68
2022-08-01T19:39:27.866Z,7.50
2022-08-01T19:41:56.159Z,11.93
2022-08-01T19:44:25.153Z,13.30
2022-08-01T19:46:52.423Z,18.23
2022-08-01T19:49:20.922Z,19.67
2022-08-01T19:52:01.570Z,28.47
2022-08-01T19:54:35.089Z,25.63
2022-08-01T19:57:03.088Z,22.05
2022-08-01T19:59:31.966Z,21.17
2022-08-01T20:01:59.510Z,17.17
2022-08-01T20:04:26.608Z,15.53
2022-08-01T20:06:53.609Z,14.68
2022-08-01T20:09:20.548Z,14.10
2022-08-01T20:11:49.168Z,15.85
2022-08-01T20:14:20.950Z,13.25
2022-08-01T20:16:48.349Z,15.37
2022-08-01T20:19:15.774Z,16.30
2022-08-01T20:21:45.206Z,16.00
2022-08-01T20:24:31.579Z,13.20
2022-08-01T20:26:58.709Z,14.20
2022-08-01T20:29:25.960Z,13.93
2022-08-01T20:31:52.826Z,10.32
2022-08-01T20:34:22.169Z,13.45
2022-08-01T20:36:56.451Z,10.90
2022-08-01T20:39:24.029Z,10.07
2022-08-01T20:41:59.656Z,11.63
2022-08-01T20:44:27.355Z,15.50
2022-08-01T20:46:54.169Z,15.40
2022-08-01T20:49:21.008Z,12.93
2022-08-01T20:51:50.761Z,15.20
2022-08-01T20:54:17.677Z,13.23
2022-08-01T20:56:52.034Z,17.85
2022-08-01T20:59:56.190Z,13.13
2022-08-01T21:02:18.505Z,12.55
2022-08-01T21:05:02.050Z,13.57
2022-08-01T21:07:32.912Z,11.53
2022-08-01T21:10:13.347Z,15.02
2022-08-01T21:13:21.001Z,35.63
2022-08-01T21:16:22.741Z,107.18
2022-08-01T21:19:10.055Z,130.63
2022-08-01T21:21:38.467Z,86.60
2022-08-01T21:24:06.716Z,61.15
2022-08-01T21:26:35.135Z,45.05
2022-08-01T21:29:05.207Z,41.80
2022-08-01T21:31:40.401Z,29.63
2022-08-01T21:34:08.305Z,22.77
2022-08-01T21:36:35.727Z,16.38
2022-08-01T21:39:06.613Z,11.70
2022-08-01T21:41:56.729Z,11.70
2022-08-01T21:44:20.316Z,11.57
2022-08-01T21:46:48.374Z,14.17
2022-08-01T21:49:15.471Z,11.65
2022-08-01T21:51:51.800Z,14.07
2022-08-01T21:54:25.408Z,11.90
2022-08-01T21:57:01.728Z,12.40
2022-08-01T21:59:46.991Z,13.17
2022-08-01T22:02:31.224Z,14.95
2022-08-01T22:05:03.480Z,15.27
2022-08-01T22:07:34.870Z,15.65
2022-08-01T22:10:04.287Z,18.63
2022-08-01T22:12:32.907Z,18.27
2022-08-01T22:14:59.791Z,16.23
2022-08-01T22:17:26.769Z,14.70
2022-08-01T22:19:55.214Z,16.77
2022-08-01T22:22:44.263Z,20.42
2022-08-01T22:25:13.169Z,18.27
2022-08-01T22:28:07.927Z,15.73
2022-08-01T22:30:29.588Z,15.30
2022-08-01T22:33:07.551Z,16.20
2022-08-01T22:35:44.010Z,13.65
2022-08-01T22:38:10.848Z,13.37
2022-08-01T22:40:39.679Z,14.55
2022-08-01T22:43:11.910Z,15.30
2022-08-01T22:45:48.292Z,13.40
2022-08-01T22:48:18.847Z,15.15
2022-08-01T22:50:50.309Z,12.17
2022-08-01T22:53:47.587Z,14.13
2022-08-01T22:56:14.526Z,13.27
2022-08-01T22:58:41.531Z,13.82
2022-08-01T23:01:12.755Z,11.88
2022-08-01T23:03:48.550Z,11.23
2022-08-01T23:06:24.630Z,12.48
2022-08-01T23:08:51.547Z,10.90
2022-08-01T23:11:19.627Z,9.85
2022-08-01T23:13:46.830Z,12.73
2022-08-01T23:16:17.420Z,9.07
2022-08-01T23:18:46.214Z,11.38
2022-08-01T23:21:13.366Z,9.98
2022-08-01T23:23:40.453Z,10.95
2022-08-01T23:26:07.355Z,11.00
2022-08-01T23:28:34.452Z,8.77
2022-08-01T23:31:01.403Z,10.38
2022-08-01T23:33:28.346Z,8.43
2022-08-01T23:35:55.231Z,9.40
2022-08-01T23:38:22.089Z,10.52
2022-08-01T23:40:50.175Z,10.10
2022-08-01T23:43:17.703Z,10.25
2022-08-01T23:46:03.891Z,9.02
2022-08-01T23:48:36.107Z,9.57
2022-08-01T23:51:04.231Z,10.27
2022-08-01T23:53:31.445Z,11.47
2022-08-01T23:55:59.291Z,10.75
2022-08-01T23:58:29.869Z,12.10
